Time;durP1;ratioP1;P1;durP2;ratioP2;P2;SDS_P1;SDS_P2;PMS_P1;PMS_P2;Temp;Humidity;BMP_temperature;BMP_pressure;BME280_temperature;BME280_humidity;BME280_pressure;Samples;Min_cycle;Max_cycle;Signal;HPM_P1;HPM_P2
2022/04/30 00:02:26;;;;;;;4.85;2.92;;;;;;;8.38;99.23;101711.69;5996898;29;20621;-88
2022/04/30 00:05:31;;;;;;;6.47;3.13;;;;;;;8.43;98.96;101713.22;6007625;29;20528;-88
2022/04/30 00:08:32;;;;;;;6.18;2.80;;;;;;;8.36;99.13;101707.50;6017536;29;20053;-89
2022/04/30 00:11:34;;;;;;;6.20;3.67;;;;;;;8.28;100.00;101713.06;6013928;29;20500;-87
2022/04/30 00:14:37;;;;;;;6.25;3.15;;;;;;;8.38;100.00;101711.69;6013541;29;20661;-88
2022/04/30 00:17:39;;;;;;;4.68;3.10;;;;;;;8.30;100.00;101710.41;5999833;29;20504;-88
2022/04/30 00:20:50;;;;;;;6.95;3.50;;;;;;;8.22;100.00;101710.75;6011112;29;20092;-88
2022/04/30 00:23:52;;;;;;;8.80;3.38;;;;;;;8.15;100.00;101704.28;5988402;29;20542;-88
2022/04/30 00:27:01;;;;;;;7.63;3.40;;;;;;;8.12;100.00;101705.25;6015846;29;20041;-88
2022/04/30 00:30:04;;;;;;;7.50;3.50;;;;;;;8.13;100.00;101703.50;6008398;29;20045;-88
2022/04/30 00:33:09;;;;;;;4.60;3.03;;;;;;;8.23;100.00;101702.13;6012041;29;20054;-88
2022/04/30 00:36:11;;;;;;;3.97;3.22;;;;;;;8.25;100.00;101705.47;6015504;29;20412;-88
2022/04/30 00:39:12;;;;;;;7.25;3.80;;;;;;;8.21;100.00;101701.38;6005744;29;20045;-88
2022/04/30 00:42:15;;;;;;;4.80;3.28;;;;;;;8.22;100.00;101702.19;6007128;29;20050;-87
2022/04/30 00:45:17;;;;;;;11.80;3.30;;;;;;;8.19;100.00;101698.84;6008159;29;20046;-88
2022/04/30 00:48:19;;;;;;;8.85;3.60;;;;;;;8.06;100.00;101709.88;6014605;29;20087;-88
2022/04/30 00:51:23;;;;;;;4.22;3.10;;;;;;;8.13;100.00;101706.09;6014520;29;20068;-88
2022/04/30 00:54:28;;;;;;;6.40;3.50;;;;;;;8.10;100.00;101707.06;6022095;29;20044;-88
2022/04/30 00:57:32;;;;;;;5.72;3.40;;;;;;;7.99;100.00;101705.00;6020832;29;20114;-88
2022/04/30 01:00:38;;;;;;;6.53;3.08;;;;;;;8.05;100.00;101706.47;6010357;29;20046;-88
2022/04/30 01:03:51;;;;;;;8.23;3.50;;;;;;;8.25;100.00;101699.47;5990775;29;20057;-88
2022/04/30 01:07:05;;;;;;;6.63;3.60;;;;;;;7.99;100.00;101699.03;6011659;29;20053;-88
2022/04/30 01:10:08;;;;;;;7.65;3.92;;;;;;;8.06;100.00;101695.22;6012296;29;20053;-88
2022/04/30 01:13:12;;;;;;;6.07;3.40;;;;;;;8.07;100.00;101689.16;5983216;29;20045;-88
2022/04/30 01:16:16;;;;;;;5.60;3.40;;;;;;;7.99;100.00;101694.69;6013175;29;20049;-88
2022/04/30 01:19:20;;;;;;;5.47;3.65;;;;;;;7.86;100.00;101692.81;6016223;29;20037;-89
2022/04/30 01:22:41;;;;;;;7.35;3.72;;;;;;;7.87;100.00;101684.16;6013514;29;20049;-88
2022/04/30 01:25:46;;;;;;;7.00;3.50;;;;;;;7.91;100.00;101686.50;6014047;29;20049;-88
2022/04/30 01:28:49;;;;;;;7.22;3.78;;;;;;;8.02;100.00;101682.56;6016658;29;20324;-88
2022/04/30 01:38:34;;;;;;;;;;;;;;;7.81;100.00;101680.13;6015215;29;20045;-88
2022/04/30 01:41:36;;;;;;;5.00;3.55;;;;;;;7.73;100.00;101677.09;6020095;29;19942;-88
2022/04/30 01:44:44;;;;;;;7.93;3.40;;;;;;;7.76;100.00;101674.38;6003560;29;20056;-88
2022/04/30 01:47:47;;;;;;;7.43;3.50;;;;;;;7.72;100.00;101673.66;6021387;29;20136;-87
2022/04/30 01:50:52;;;;;;;7.65;3.17;;;;;;;7.77;100.00;101663.16;6010772;29;20084;-88
2022/04/30 01:53:54;;;;;;;9.85;3.15;;;;;;;7.70;100.00;101656.63;6021842;29;20057;-87
2022/04/30 01:56:56;;;;;;;11.02;3.28;;;;;;;7.71;100.00;101653.97;6021111;29;20042;-88
2022/04/30 02:00:02;;;;;;;6.60;3.40;;;;;;;7.78;100.00;101667.41;5994129;29;20060;-88
2022/04/30 02:03:13;;;;;;;7.68;3.55;;;;;;;7.62;100.00;101653.59;6007314;29;20140;-88
2022/04/30 02:06:16;;;;;;;7.82;3.53;;;;;;;7.61;100.00;101657.91;6015038;29;20554;-88
2022/04/30 02:09:19;;;;;;;7.00;3.20;;;;;;;7.49;100.00;101651.59;6003915;29;20339;-88
2022/04/30 02:12:21;;;;;;;5.53;3.60;;;;;;;7.44;100.00;101653.56;6010992;29;20038;-88
2022/04/30 02:15:24;;;;;;;7.45;3.30;;;;;;;7.53;100.00;101655.72;6009807;29;20440;-88
2022/04/30 02:18:27;;;;;;;8.77;3.45;;;;;;;7.57;100.00;101650.41;6018183;29;20053;-87
2022/04/30 02:21:32;;;;;;;7.15;3.80;;;;;;;7.48;100.00;101649.94;6011196;29;20046;-88
2022/04/30 02:24:35;;;;;;;8.73;4.03;;;;;;;7.42;100.00;101645.06;6011439;29;20046;-88
2022/04/30 02:27:43;;;;;;;11.88;3.60;;;;;;;7.49;100.00;101638.72;6011891;29;20483;-88
2022/04/30 02:30:45;;;;;;;7.20;3.28;;;;;;;7.34;100.00;101637.72;6012999;29;20492;-88
2022/04/30 02:33:47;;;;;;;7.55;3.45;;;;;;;7.39;100.00;101626.38;6018503;29;20526;-88
2022/04/30 02:36:49;;;;;;;6.32;3.40;;;;;;;7.40;100.00;101618.53;6005560;29;20564;-88
2022/04/30 02:39:51;;;;;;;5.22;3.25;;;;;;;7.48;100.00;101620.78;6012893;29;20086;-88
2022/04/30 02:42:53;;;;;;;11.50;4.03;;;;;;;7.45;100.00;101623.47;6008013;29;20447;-88
2022/04/30 02:45:55;;;;;;;5.50;3.05;;;;;;;7.47;100.00;101624.25;6006598;29;20068;-88
2022/04/30 02:48:57;;;;;;;8.95;3.47;;;;;;;7.49;100.00;101615.53;6008832;29;20073;-88
2022/04/30 02:51:59;;;;;;;5.07;3.40;;;;;;;7.38;100.00;101604.06;6004398;29;20347;-88
2022/04/30 02:55:01;;;;;;;8.75;3.42;;;;;;;7.27;100.00;101607.16;5999857;29;20054;-88
2022/04/30 03:01:24;;;;;;;9.88;3.65;;;;;;;7.32;100.00;101600.06;5991348;29;20217;-88
2022/04/30 03:04:40;;;;;;;6.63;3.17;;;;;;;7.36;100.00;101596.44;6011509;29;20567;-87
2022/04/30 03:07:43;;;;;;;4.43;3.25;;;;;;;7.30;100.00;101594.13;6010220;29;20042;-88
2022/04/30 03:10:45;;;;;;;8.68;3.33;;;;;;;7.33;100.00;101601.75;6000488;29;20046;-88
2022/04/30 03:13:47;;;;;;;9.80;4.13;;;;;;;7.25;100.00;101603.81;6008889;29;20415;-88
2022/04/30 03:23:33;;;;;;;7.35;3.17;;;;;;;7.24;100.00;101597.03;5998579;29;20116;-87
2022/04/30 03:26:35;;;;;;;6.43;3.30;;;;;;;7.21;100.00;101586.88;6014284;29;20046;-88
2022/04/30 03:29:37;;;;;;;11.00;3.70;;;;;;;7.21;100.00;101586.88;6008954;29;20041;-88
2022/04/30 03:32:42;;;;;;;9.40;3.40;;;;;;;7.26;100.00;101584.91;5995312;29;20511;-88
2022/04/30 03:35:44;;;;;;;7.45;3.75;;;;;;;7.28;100.00;101583.09;6004317;29;20077;-88
2022/04/30 03:38:47;;;;;;;9.13;3.70;;;;;;;7.25;100.00;101588.38;6003611;29;20045;-88
2022/04/30 03:41:49;;;;;;;6.78;3.45;;;;;;;7.16;100.00;101583.69;6008133;29;20439;-87
2022/04/30 03:44:53;;;;;;;7.05;3.88;;;;;;;7.12;100.00;101583.81;6003074;29;20056;-88
2022/04/30 03:47:55;;;;;;;7.55;3.67;;;;;;;7.11;100.00;101589.88;6008942;29;20808;-88
2022/04/30 03:50:58;;;;;;;7.03;3.60;;;;;;;7.18;100.00;101587.84;6003651;29;20102;-87
2022/04/30 03:54:00;;;;;;;9.27;4.00;;;;;;;7.17;100.00;101586.16;5996311;29;20902;-87
2022/04/30 03:57:02;;;;;;;8.48;4.57;;;;;;;7.10;100.00;101585.66;6017667;29;20057;-88
2022/04/30 04:00:05;;;;;;;8.35;3.75;;;;;;;7.09;100.00;101583.13;6011972;29;20050;-88
2022/04/30 04:03:14;;;;;;;9.05;3.70;;;;;;;7.11;100.00;101583.91;6013471;29;20210;-88
2022/04/30 04:06:16;;;;;;;8.82;3.97;;;;;;;7.18;100.00;101589.56;6009989;29;20056;-87
2022/04/30 04:09:18;;;;;;;7.78;4.07;;;;;;;7.21;100.00;101587.69;6011603;29;20057;-87
2022/04/30 04:12:20;;;;;;;10.52;4.18;;;;;;;7.16;100.00;101588.84;6012587;29;20045;-87
2022/04/30 04:18:43;;;;;;;5.90;3.70;;;;;;;6.98;100.00;101582.78;6005736;29;20050;-88
2022/04/30 04:21:45;;;;;;;7.88;3.70;;;;;;;6.99;100.00;101585.31;6011833;29;20049;-87
2022/04/30 04:28:08;;;;;;;8.52;4.18;;;;;;;7.09;100.00;101591.69;6009352;29;20074;-88
2022/04/30 04:31:10;;;;;;;10.15;4.13;;;;;;;7.09;100.00;101591.69;6006622;29;20794;-87
2022/04/30 04:34:13;;;;;;;11.45;4.40;;;;;;;7.13;100.00;101587.25;6016675;29;20056;-87
2022/04/30 04:37:15;;;;;;;11.20;4.38;;;;;;;7.27;100.00;101595.13;6007949;29;20050;-88
2022/04/30 04:40:18;;;;;;;7.82;4.45;;;;;;;7.19;100.00;101599.81;5994014;29;20246;-88
2022/04/30 04:43:19;;;;;;;7.70;4.13;;;;;;;7.20;100.00;101608.38;6009091;29;20061;-88
2022/04/30 04:46:22;;;;;;;10.25;4.45;;;;;;;7.14;100.00;101604.34;6018559;29;20181;-87
2022/04/30 04:49:24;;;;;;;8.13;4.25;;;;;;;7.28;100.00;101614.84;6012941;29;20504;-88
2022/04/30 04:52:27;;;;;;;10.38;4.55;;;;;;;7.29;100.00;101606.19;6016761;29;20521;-88
2022/04/30 04:55:28;;;;;;;9.32;4.15;;;;;;;7.29;100.00;101611.34;6013409;29;20046;-87
2022/04/30 04:58:30;;;;;;;10.73;4.60;;;;;;;7.47;100.00;101619.09;6019525;29;20280;-88
2022/04/30 05:01:33;;;;;;;11.25;4.85;;;;;;;7.43;100.00;101614.97;6013383;29;20041;-88
2022/04/30 05:04:36;;;;;;;9.95;4.40;;;;;;;7.43;100.00;101615.84;5995124;29;20435;-88
2022/04/30 05:07:38;;;;;;;11.15;4.95;;;;;;;7.37;100.00;101618.69;6014748;29;20506;-88
2022/04/30 05:10:39;;;;;;;11.88;4.95;;;;;;;7.26;100.00;101626.94;6007521;29;20492;-87
2022/04/30 05:13:41;;;;;;;9.13;4.97;;;;;;;7.42;100.00;101618.47;6005117;29;20121;-87
2022/04/30 05:16:43;;;;;;;9.65;4.93;;;;;;;7.30;100.00;101625.03;6005449;29;20085;-87
2022/04/30 05:19:45;;;;;;;12.13;5.53;;;;;;;7.12;100.00;101619.84;6008366;29;20567;-87
2022/04/30 05:22:47;;;;;;;13.45;5.30;;;;;;;7.17;100.00;101616.25;6015632;29;20064;-87
2022/04/30 05:25:49;;;;;;;8.75;4.97;;;;;;;7.30;100.00;101622.47;6013723;29;20065;-87
2022/04/30 05:28:51;;;;;;;10.38;5.03;;;;;;;7.26;100.00;101629.53;5999910;29;20050;-87
2022/04/30 05:31:53;;;;;;;9.77;5.18;;;;;;;7.40;100.00;101628.03;6013600;29;20178;-87
2022/04/30 05:34:55;;;;;;;9.60;4.53;;;;;;;7.59;100.00;101630.56;6014977;29;20162;-87
2022/04/30 05:37:57;;;;;;;8.68;5.40;;;;;;;7.60;100.00;101633.03;6017249;29;20781;-87
2022/04/30 05:41:00;;;;;;;12.52;5.57;;;;;;;7.68;100.00;101630.13;6019091;29;21290;-87
2022/04/30 05:44:02;;;;;;;10.60;5.38;;;;;;;7.70;100.00;101623.97;6010102;29;20515;-87
2022/04/30 05:47:04;;;;;;;11.80;5.57;;;;;;;7.63;100.00;101624.34;6019533;29;21083;-87
2022/04/30 05:50:07;;;;;;;11.40;5.53;;;;;;;7.65;100.00;101630.25;5997232;29;20049;-88
2022/04/30 05:53:09;;;;;;;9.82;5.20;;;;;;;7.68;100.00;101628.38;6003159;29;20042;-88
2022/04/30 05:56:11;;;;;;;12.52;6.10;;;;;;;7.65;100.00;101631.09;6006609;29;20782;-88
2022/04/30 05:59:13;;;;;;;8.25;5.30;;;;;;;7.72;100.00;101629.03;5992194;29;20045;-89
2022/04/30 06:02:15;;;;;;;11.68;5.82;;;;;;;7.61;100.00;101628.75;6003869;29;20049;-89
2022/04/30 06:05:17;;;;;;;13.57;5.65;;;;;;;7.61;100.00;101628.75;6014352;29;20053;-89
2022/04/30 06:08:19;;;;;;;10.27;5.50;;;;;;;7.66;100.00;101626.78;6015159;29;20527;-89
2022/04/30 06:11:21;;;;;;;11.30;5.97;;;;;;;7.58;100.00;101634.03;6013561;29;20034;-90
2022/04/30 06:14:23;;;;;;;14.30;5.97;;;;;;;7.41;100.00;101625.38;6016830;29;20781;-90
2022/04/30 06:17:26;;;;;;;12.02;5.70;;;;;;;7.36;100.00;101624.78;6013877;29;20503;-91
2022/04/30 06:20:33;;;;;;;14.73;6.20;;;;;;;7.45;100.00;101629.50;6003184;29;20053;-90
2022/04/30 06:23:35;;;;;;;9.82;5.78;;;;;;;7.34;100.00;101636.88;6019693;29;20587;-91
2022/04/30 06:26:37;;;;;;;12.35;6.30;;;;;;;7.40;100.00;101636.56;6007771;29;20386;-93
2022/04/30 06:29:40;;;;;;;12.15;6.80;;;;;;;7.30;100.00;101637.91;6016352;29;20049;-94
2022/04/30 06:32:42;;;;;;;13.38;7.00;;;;;;;7.28;100.00;101634.59;6016744;29;20041;-93
2022/04/30 06:35:44;;;;;;;12.93;6.60;;;;;;;7.39;100.00;101634.91;5993599;29;20652;-92
2022/04/30 06:38:46;;;;;;;11.07;6.30;;;;;;;7.35;100.00;101635.97;6014957;29;20045;-92
2022/04/30 06:41:48;;;;;;;12.52;6.45;;;;;;;7.39;100.00;101645.22;6005170;29;20125;-93
2022/04/30 06:44:51;;;;;;;10.95;6.32;;;;;;;7.31;100.00;101644.75;5998791;29;20061;-93
2022/04/30 06:47:53;;;;;;;14.00;6.55;;;;;;;7.20;100.00;101639.25;6001433;29;20057;-92
2022/04/30 06:50:55;;;;;;;13.38;6.05;;;;;;;7.27;100.00;101638.91;6018818;29;20420;-91
2022/04/30 06:57:21;;;;;;;14.82;6.22;;;;;;;7.17;100.00;101642.00;6011582;29;20050;-92
2022/04/30 07:01:28;;;;;;;10.07;5.32;;;;;;;7.23;100.00;101639.13;6019137;29;20041;-91
2022/04/30 07:04:04;;;;;;;15.38;6.07;;;;;;;7.19;100.00;101638.44;6004444;29;20052;-91
2022/04/30 07:07:06;;;;;;;15.10;6.38;;;;;;;7.23;100.00;101633.97;6016229;29;20508;-92
2022/04/30 07:10:08;;;;;;;11.68;6.22;;;;;;;7.09;100.00;101626.91;6001148;29;20053;-92
2022/04/30 07:13:11;;;;;;;11.85;6.05;;;;;;;7.11;100.00;101620.78;6008885;29;20411;-92
2022/04/30 07:16:13;;;;;;;11.43;6.72;;;;;;;7.09;100.00;101621.75;6005827;29;20253;-92
2022/04/30 07:19:15;;;;;;;13.10;6.88;;;;;;;6.99;100.00;101623.91;5994163;29;20050;-91
2022/04/30 07:22:17;;;;;;;15.68;7.10;;;;;;;7.11;100.00;101614.81;6013280;29;20057;-91
2022/04/30 07:25:19;;;;;;;15.75;6.78;;;;;;;7.06;100.00;101614.19;6011207;29;20114;-93
2022/04/30 07:28:23;;;;;;;15.25;7.05;;;;;;;6.93;100.00;101607.91;6009200;29;20077;-92
2022/04/30 07:31:25;;;;;;;19.13;7.03;;;;;;;6.92;100.00;101607.09;6016105;29;20072;-91
2022/04/30 07:34:27;;;;;;;13.40;6.55;;;;;;;6.91;100.00;101602.84;6010139;29;20045;-92
2022/04/30 07:37:30;;;;;;;12.52;6.30;;;;;;;7.11;100.00;101604.50;5992964;29;20551;-91
2022/04/30 07:40:32;;;;;;;11.63;6.65;;;;;;;7.15;100.00;101606.00;6002233;29;20113;-92
2022/04/30 07:43:34;;;;;;;14.05;6.60;;;;;;;7.12;100.00;101599.25;5998919;29;20056;-92
2022/04/30 07:46:37;;;;;;;13.27;6.45;;;;;;;7.18;100.00;101603.31;5994651;29;20062;-93
2022/04/30 07:49:41;;;;;;;10.88;6.03;;;;;;;7.31;100.00;101601.81;6006568;29;20049;-92
2022/04/30 07:52:43;;;;;;;12.18;7.22;;;;;;;7.46;100.00;101602.81;6000091;29;20070;-95
2022/04/30 07:55:48;;;;;;;15.88;6.93;;;;;;;7.62;100.00;101604.63;6013023;29;20038;-96
2022/04/30 07:58:59;;;;;;;14.00;7.47;;;;;;;7.81;100.00;101607.97;6025772;29;20516;-94
2022/04/30 08:02:10;;;;;;;15.70;7.70;;;;;;;8.15;100.00;101603.69;5992907;29;20049;-96
2022/04/30 08:05:42;;;;;;;;;;;;;;;;;;;;;
2022/04/30 08:09:09;;;;;;;13.85;7.85;;;;;;;8.52;100.00;101612.09;6017210;29;20049;-95
2022/04/30 08:12:17;;;;;;;13.32;6.97;;;;;;;8.72;100.00;101614.47;6012381;29;20511;-96
2022/04/30 08:15:21;;;;;;;12.15;7.72;;;;;;;8.82;100.00;101625.97;6003212;29;20038;-96
2022/04/30 08:18:26;;;;;;;14.65;7.70;;;;;;;8.87;100.00;101630.91;6000405;29;20050;-96
2022/04/30 08:21:33;;;;;;;12.68;7.07;;;;;;;9.02;100.00;101629.22;6011060;29;20504;-96
2022/04/30 08:51:48;;;;;;;11.25;6.72;;;;;;;11.89;100.00;101606.63;7168225;23;20023;-96
2022/04/30 08:54:59;;;;;;;7.93;6.13;;;;;;;12.13;100.00;101608.53;6046411;29;20080;-96
2022/04/30 08:58:15;;;;;;;8.43;5.57;;;;;;;12.22;100.00;101616.53;6032662;29;20507;-95
2022/04/30 09:01:26;;;;;;;9.30;5.88;;;;;;;12.00;100.00;101611.09;6040091;29;20305;-95
2022/04/30 09:04:49;;;;;;;9.70;5.70;;;;;;;11.95;100.00;101611.44;6025527;29;20418;-95
2022/04/30 09:07:54;;;;;;;10.18;5.30;;;;;;;12.04;100.00;101615.16;6030904;29;20170;-94
2022/04/30 09:11:08;;;;;;;6.85;5.60;;;;;;;12.09;99.78;101607.06;6035377;29;20618;-93
2022/04/30 09:14:10;;;;;;;8.70;5.68;;;;;;;12.09;100.00;101609.66;6037810;29;20373;-91
2022/04/30 09:17:14;;;;;;;9.90;5.70;;;;;;;11.95;100.00;101602.78;6034004;29;20041;-92
2022/04/30 09:20:18;;;;;;;8.35;5.40;;;;;;;11.82;100.00;101607.94;6020458;29;20115;-91
2022/04/30 09:23:26;;;;;;;7.88;5.38;;;;;;;11.66;100.00;101610.75;6033994;29;20287;-92
2022/04/30 09:26:38;;;;;;;10.32;5.32;;;;;;;11.60;100.00;101609.41;6039089;29;20402;-90
2022/04/30 09:29:42;;;;;;;8.93;5.68;;;;;;;11.65;100.00;101601.28;6042559;29;20211;-90
2022/04/30 09:32:44;;;;;;;7.72;5.18;;;;;;;11.61;100.00;101611.03;6032447;29;20045;-89
2022/04/30 09:39:18;;;;;;;9.30;5.40;;;;;;;11.69;100.00;101607.13;6023723;29;20054;-91
2022/04/30 09:42:20;;;;;;;8.55;4.97;;;;;;;11.68;100.00;101600.28;6028857;29;20495;-89
2022/04/30 09:45:27;;;;;;;10.15;5.22;;;;;;;11.72;98.26;101599.13;6034853;29;20056;-89
2022/04/30 09:55:15;;;;;;;12.00;4.55;;;;;;;11.64;95.35;101587.50;6027994;29;20456;-87
2022/04/30 09:58:21;;;;;;;8.63;4.30;;;;;;;11.77;97.54;101594.47;6033752;29;20056;-89
2022/04/30 10:01:23;;;;;;;7.85;4.25;;;;;;;11.75;96.60;101593.72;6029823;29;20049;-88
2022/04/30 10:04:27;;;;;;;5.82;4.18;;;;;;;11.69;96.08;101597.56;6037273;29;20057;-88
2022/04/30 10:07:32;;;;;;;7.20;4.72;;;;;;;11.77;100.00;101595.28;6036678;29;20113;-88
2022/04/30 10:10:51;;;;;;;8.57;5.07;;;;;;;11.88;97.61;101598.97;6039790;29;20056;-87
2022/04/30 10:14:31;;;;;;;7.72;4.13;;;;;;;12.06;96.44;101597.72;6033447;29;20152;-87
2022/04/30 10:17:42;;;;;;;6.22;4.55;;;;;;;12.25;96.67;101590.34;6032082;29;20060;-87
2022/04/30 10:20:52;;;;;;;10.32;4.90;;;;;;;12.45;93.83;101590.72;6014413;29;20120;-86
2022/04/30 10:24:01;;;;;;;8.73;4.80;;;;;;;12.24;92.71;101588.66;6033189;29;20164;-87
2022/04/30 10:27:03;;;;;;;8.77;4.65;;;;;;;12.18;93.44;101594.28;6033524;29;20041;-86
2022/04/30 10:30:07;;;;;;;8.20;4.93;;;;;;;12.24;91.52;101588.66;6029246;29;20044;-87
2022/04/30 10:33:10;;;;;;;9.00;4.82;;;;;;;12.40;92.59;101582.44;6033459;29;20287;-87
2022/04/30 10:36:12;;;;;;;7.53;5.43;;;;;;;12.38;92.03;101584.31;6032132;29;20510;-86
2022/04/30 10:39:19;;;;;;;10.05;5.85;;;;;;;12.54;89.76;101586.66;6034426;29;20446;-87
2022/04/30 10:42:43;;;;;;;7.90;5.38;;;;;;;12.50;90.61;101578.25;6025242;29;20076;-86
2022/04/30 10:45:46;;;;;;;9.65;6.20;;;;;;;12.60;91.44;101574.06;6031170;29;20069;-87
2022/04/30 10:48:48;;;;;;;10.88;6.72;;;;;;;12.53;94.73;101569.41;6032924;29;20048;-85
2022/04/30 10:51:55;;;;;;;8.05;6.07;;;;;;;12.73;90.29;101579.22;6025802;29;20052;-87
2022/04/30 10:54:58;;;;;;;7.82;5.55;;;;;;;12.75;92.69;101568.72;6025454;29;20083;-85
2022/04/30 10:58:23;;;;;;;10.50;6.13;;;;;;;12.52;94.23;101565.13;6025078;29;20430;-86
2022/04/30 11:01:26;;;;;;;9.27;6.10;;;;;;;12.77;91.14;101565.06;6023869;29;20045;-85
2022/04/30 11:04:28;;;;;;;8.98;6.60;;;;;;;12.91;90.84;101569.28;6012282;29;20049;-87
2022/04/30 11:07:32;;;;;;;8.90;7.40;;;;;;;13.06;92.72;101573.34;6023926;29;20048;-86
2022/04/30 11:10:34;;;;;;;9.05;7.43;;;;;;;13.10;90.68;101572.19;6030995;29;20033;-86
2022/04/30 11:13:35;;;;;;;9.68;7.47;;;;;;;13.13;90.90;101571.97;6032358;29;20762;-86
2022/04/30 11:16:44;;;;;;;12.15;6.72;;;;;;;13.33;89.20;101569.72;6018684;29;20743;-86
2022/04/30 11:19:46;;;;;;;10.18;6.15;;;;;;;13.43;87.66;101567.25;6037333;29;20055;-87
2022/04/30 11:22:56;;;;;;;9.32;5.93;;;;;;;13.45;87.24;101561.00;6009710;29;20058;-86
2022/04/30 11:25:59;;;;;;;7.70;5.55;;;;;;;13.67;85.57;101557.63;6023039;29;20489;-86
2022/04/30 11:29:00;;;;;;;10.30;5.57;;;;;;;13.76;85.42;101556.94;6024578;29;20045;-86
2022/04/30 11:32:05;;;;;;;6.97;5.25;;;;;;;13.95;80.81;101551.13;6027773;29;20407;-86
2022/04/30 11:35:07;;;;;;;13.32;6.03;;;;;;;14.08;82.96;101542.38;6012732;29;20037;-87
2022/04/30 11:38:10;;;;;;;8.40;5.72;;;;;;;13.94;84.12;101548.66;6020958;29;20109;-86
2022/04/30 11:41:12;;;;;;;8.95;5.70;;;;;;;13.86;82.92;101548.41;6027783;29;20414;-87
2022/04/30 11:44:16;;;;;;;11.55;5.53;;;;;;;13.67;84.18;101544.59;6023866;29;21265;-87
2022/04/30 11:47:20;;;;;;;8.65;4.97;;;;;;;13.90;79.14;101542.84;6026855;29;20048;-86
2022/04/30 11:50:23;;;;;;;6.70;4.95;;;;;;;13.85;80.87;101542.38;6019616;29;20059;-84
2022/04/30 11:53:25;;;;;;;10.13;6.70;;;;;;;13.79;80.17;101541.06;6013137;29;20084;-87
2022/04/30 11:56:28;;;;;;;6.63;4.75;;;;;;;13.81;77.68;101543.53;6027938;29;20049;-86
2022/04/30 11:59:40;;;;;;;6.97;4.45;;;;;;;13.92;79.89;101538.38;6026697;29;20042;-87
2022/04/30 12:02:49;;;;;;;5.47;4.43;;;;;;;14.07;78.88;101530.31;6008223;29;20053;-86
2022/04/30 12:05:52;;;;;;;10.27;5.38;;;;;;;14.58;80.50;101532.38;6014341;29;20613;-86
2022/04/30 12:08:55;;;;;;;9.93;5.15;;;;;;;14.92;72.15;101533.13;6022042;29;20059;-86
2022/04/30 12:11:59;;;;;;;6.85;4.40;;;;;;;14.67;69.76;101530.84;6019423;29;20807;-87
2022/04/30 12:15:01;;;;;;;7.45;5.43;;;;;;;14.53;71.04;101534.50;6021816;29;20582;-87
2022/04/30 12:25:10;;;;;;;6.70;4.68;;;;;;;14.46;74.26;101515.09;6026868;29;20621;-86
2022/04/30 12:28:12;;;;;;;12.18;7.50;;;;;;;14.72;68.19;101520.88;6032644;29;20117;-86
2022/04/30 12:31:15;;;;;;;6.43;4.70;;;;;;;14.58;73.19;101519.34;6014191;29;20516;-86
2022/04/30 12:34:27;;;;;;;7.85;4.13;;;;;;;14.65;67.58;101515.31;6019479;29;20053;-86
2022/04/30 12:37:31;;;;;;;6.53;4.32;;;;;;;14.70;69.93;101507.94;6023954;29;20041;-86
2022/04/30 12:40:35;;;;;;;4.78;3.70;;;;;;;14.78;67.25;101508.19;6034025;29;20046;-86
2022/04/30 12:43:37;;;;;;;5.25;4.15;;;;;;;14.67;67.66;101505.59;6021043;29;20479;-87
2022/04/30 12:46:44;;;;;;;4.97;4.05;;;;;;;14.74;67.08;101503.34;6029027;29;20079;-88
2022/04/30 12:49:46;;;;;;;6.95;3.92;;;;;;;14.85;66.82;101501.50;6024635;29;20124;-87
2022/04/30 12:52:48;;;;;;;7.50;4.53;;;;;;;14.96;64.60;101505.84;6032547;29;20056;-88
2022/04/30 12:55:52;;;;;;;5.35;3.88;;;;;;;15.17;64.76;101494.59;6034772;29;20060;-84
2022/04/30 12:58:54;;;;;;;6.43;4.25;;;;;;;15.23;64.46;101488.88;6024268;29;20060;-88
2022/04/30 13:01:56;;;;;;;7.60;4.40;;;;;;;15.32;65.56;101493.31;6033612;29;20046;-87
2022/04/30 13:04:58;;;;;;;6.68;4.13;;;;;;;15.12;64.44;101492.38;6015936;29;20049;-87
2022/04/30 13:08:00;;;;;;;5.93;4.30;;;;;;;15.24;66.59;101490.53;6031608;29;20093;-87
2022/04/30 13:14:22;;;;;;;10.70;4.50;;;;;;;15.17;62.73;101471.94;6015856;29;20046;-89
2022/04/30 13:17:24;;;;;;;9.18;4.18;;;;;;;15.05;64.76;101471.22;6026733;29;20177;-89
2022/04/30 13:20:26;;;;;;;6.68;4.38;;;;;;;14.81;66.41;101475.81;6024851;29;20045;-89
2022/04/30 13:23:28;;;;;;;7.38;4.75;;;;;;;14.50;65.50;101470.44;6001091;29;20049;-89
2022/04/30 13:26:31;;;;;;;6.22;3.97;;;;;;;14.27;67.18;101468.88;6014649;29;20056;-89
2022/04/30 13:29:32;;;;;;;8.38;4.15;;;;;;;14.02;67.22;101467.38;6014849;29;20049;-88
2022/04/30 13:32:35;;;;;;;6.45;4.20;;;;;;;13.86;70.51;101462.50;6027603;29;20268;-90
2022/04/30 13:35:37;;;;;;;8.55;4.05;;;;;;;13.94;65.70;101462.75;6003563;29;20049;-89
2022/04/30 13:38:40;;;;;;;4.07;3.53;;;;;;;13.72;66.50;101461.81;6009930;29;20049;-89
2022/04/30 13:41:42;;;;;;;6.50;3.63;;;;;;;13.53;67.05;101464.19;6028596;29;20595;-89
2022/04/30 13:44:44;;;;;;;6.72;3.67;;;;;;;13.49;67.98;101460.16;6010413;29;20267;-89
2022/04/30 13:47:50;;;;;;;12.40;7.88;;;;;;;13.47;65.33;101444.69;6023868;29;20049;-91
2022/04/30 13:50:52;;;;;;;7.05;3.65;;;;;;;13.27;67.63;101442.78;6026541;29;20049;-89
2022/04/30 13:53:54;;;;;;;6.32;3.92;;;;;;;13.15;68.55;101447.09;6020052;29;20585;-89
2022/04/30 13:56:57;;;;;;;6.40;4.35;;;;;;;13.13;68.71;101436.78;6036524;29;20076;-89
2022/04/30 13:59:58;;;;;;;6.65;3.80;;;;;;;13.17;67.95;101441.75;6019255;29;20058;-88
2022/04/30 14:03:02;;;;;;;4.47;3.55;;;;;;;13.14;70.97;101448.00;6027346;29;20048;-89
2022/04/30 14:06:04;;;;;;;10.07;4.13;;;;;;;13.43;66.73;101442.41;6035162;29;20046;-89
2022/04/30 14:09:06;;;;;;;7.00;3.53;;;;;;;13.58;67.96;101434.25;6017270;29;20077;-89
2022/04/30 14:12:08;;;;;;;5.03;3.70;;;;;;;13.70;64.42;101442.06;6018144;29;20042;-89
2022/04/30 14:15:11;;;;;;;6.57;3.80;;;;;;;13.74;64.79;101436.53;6007135;29;20535;-89
2022/04/30 14:18:24;;;;;;;5.70;3.50;;;;;;;13.80;64.06;101432.59;6028254;29;20199;-90
2022/04/30 14:21:26;;;;;;;7.38;3.42;;;;;;;13.93;63.95;101433.28;6033539;29;20590;-89
2022/04/30 14:24:31;;;;;;;5.78;3.60;;;;;;;14.02;66.62;101420.50;6026601;29;20112;-89
2022/04/30 14:27:34;;;;;;;3.88;3.40;;;;;;;14.12;66.79;101429.25;6025642;29;20408;-89
2022/04/30 14:30:38;;;;;;;4.25;3.17;;;;;;;14.29;60.00;101430.50;6039211;29;20079;-89
2022/04/30 14:33:40;;;;;;;6.70;3.78;;;;;;;14.14;65.27;101427.34;6033695;29;20068;-88
2022/04/30 14:36:43;;;;;;;7.57;4.07;;;;;;;14.13;67.70;101423.91;6013671;29;20677;-87
2022/04/30 14:39:45;;;;;;;6.57;3.83;;;;;;;14.17;68.46;101421.88;6031877;29;20189;-89
2022/04/30 14:42:48;;;;;;;6.72;4.18;;;;;;;14.18;67.72;101423.53;6023649;29;20088;-88
2022/04/30 14:45:49;;;;;;;8.50;4.22;;;;;;;14.17;65.40;101421.88;6025188;29;20156;-88
2022/04/30 14:48:55;;;;;;;5.65;3.60;;;;;;;14.18;66.23;101423.53;6011906;29;20132;-88
2022/04/30 14:51:57;;;;;;;6.72;4.10;;;;;;;14.29;64.65;101423.50;6032160;29;20572;-88
2022/04/30 14:54:59;;;;;;;7.78;4.07;;;;;;;14.26;65.79;101426.38;6020464;29;20151;-88
2022/04/30 14:58:01;;;;;;;8.88;4.68;;;;;;;14.28;67.13;101411.44;6023005;29;20650;-88
2022/04/30 15:01:04;;;;;;;5.22;3.90;;;;;;;14.32;66.26;101425.88;6021536;29;20049;-89
2022/04/30 15:04:06;;;;;;;4.97;3.80;;;;;;;14.21;66.03;101415.50;6024032;29;20485;-88
2022/04/30 15:07:08;;;;;;;6.28;4.07;;;;;;;14.20;66.31;101413.81;6034850;29;20037;-95
2022/04/30 15:10:10;;;;;;;7.15;4.28;;;;;;;14.19;67.65;101404.38;6055013;29;20048;-96
2022/04/30 15:13:12;;;;;;;5.10;3.90;;;;;;;14.24;68.38;101402.22;6061619;29;20052;-96
2022/04/30 15:16:14;;;;;;;6.07;3.85;;;;;;;14.14;68.08;101396.94;6069440;29;20038;-96
2022/04/30 15:19:18;;;;;;;6.18;3.53;;;;;;;14.09;65.68;101399.06;6058576;29;20097;-95
2022/04/30 15:22:20;;;;;;;5.00;3.58;;;;;;;14.03;64.96;101396.94;6041409;29;20036;-95
2022/04/30 15:25:21;;;;;;;5.90;4.03;;;;;;;13.95;64.66;101392.34;6050815;29;20052;-96
2022/04/30 15:28:24;;;;;;;4.50;3.60;;;;;;;13.92;64.11;101390.00;6044548;29;20041;-96
2022/04/30 15:31:26;;;;;;;5.45;3.00;;;;;;;13.92;65.97;101383.97;6052074;29;20052;-94